sensor_id;sensor_type;location;lat;lon;timestamp;P1;durP1;ratioP1;P2;durP2;ratioP2
11685;SDS011;5899;51.282;6.094;2023-06-14T00:00:50;5.30;;;4.43;;
11685;SDS011;5899;51.282;6.094;2023-06-14T00:03:53;5.10;;;4.13;;
11685;SDS011;5899;51.282;6.094;2023-06-14T00:06:36;6.28;;;4.13;;
11685;SDS011;5899;51.282;6.094;2023-06-14T00:09:16;5.30;;;4.53;;
11685;SDS011;5899;51.282;6.094;2023-06-14T00:12:29;5.10;;;4.25;;
11685;SDS011;5899;51.282;6.094;2023-06-14T00:15:03;6.53;;;4.33;;
11685;SDS011;5899;51.282;6.094;2023-06-14T00:18:02;5.65;;;4.43;;
11685;SDS011;5899;51.282;6.094;2023-06-14T00:20:46;5.90;;;4.18;;
11685;SDS011;5899;51.282;6.094;2023-06-14T00:41:08;6.07;;;4.30;;
11685;SDS011;5899;51.282;6.094;2023-06-14T00:44:50;5.35;;;4.13;;
11685;SDS011;5899;51.282;6.094;2023-06-14T00:46:59;7.55;;;4.80;;
11685;SDS011;5899;51.282;6.094;2023-06-14T00:50:41;5.50;;;4.47;;
11685;SDS011;5899;51.282;6.094;2023-06-14T00:54:50;6.55;;;4.38;;
11685;SDS011;5899;51.282;6.094;2023-06-14T00:55:42;5.80;;;4.60;;
11685;SDS011;5899;51.282;6.094;2023-06-14T01:04:24;6.00;;;3.90;;
11685;SDS011;5899;51.282;6.094;2023-06-14T01:07:00;6.82;;;4.47;;
11685;SDS011;5899;51.282;6.094;2023-06-14T01:09:45;5.25;;;4.45;;
11685;SDS011;5899;51.282;6.094;2023-06-14T01:12:19;6.03;;;3.90;;
11685;SDS011;5899;51.282;6.094;2023-06-14T01:17:03;4.45;;;4.05;;
11685;SDS011;5899;51.282;6.094;2023-06-14T01:21:20;5.15;;;4.00;;
11685;SDS011;5899;51.282;6.094;2023-06-14T01:27:15;4.80;;;4.30;;
11685;SDS011;5899;51.282;6.094;2023-06-14T01:29:51;5.38;;;4.38;;
11685;SDS011;5899;51.282;6.094;2023-06-14T01:32:39;5.13;;;4.03;;
11685;SDS011;5899;51.282;6.094;2023-06-14T01:38:16;5.60;;;4.10;;
11685;SDS011;5899;51.282;6.094;2023-06-14T01:40:49;5.38;;;4.43;;
11685;SDS011;5899;51.282;6.094;2023-06-14T01:46:20;8.60;;;4.47;;
11685;SDS011;5899;51.282;6.094;2023-06-14T01:49:03;4.63;;;4.07;;
11685;SDS011;5899;51.282;6.094;2023-06-14T01:51:43;5.80;;;4.35;;
11685;SDS011;5899;51.282;6.094;2023-06-14T01:54:21;4.63;;;4.03;;
11685;SDS011;5899;51.282;6.094;2023-06-14T01:58:22;4.80;;;3.80;;
11685;SDS011;5899;51.282;6.094;2023-06-14T02:00:28;5.70;;;4.35;;
11685;SDS011;5899;51.282;6.094;2023-06-14T02:06:04;4.72;;;3.85;;
11685;SDS011;5899;51.282;6.094;2023-06-14T02:08:35;5.03;;;4.45;;
11685;SDS011;5899;51.282;6.094;2023-06-14T02:11:16;4.47;;;3.85;;
11685;SDS011;5899;51.282;6.094;2023-06-14T02:17:36;4.65;;;4.20;;
11685;SDS011;5899;51.282;6.094;2023-06-14T02:19:51;7.30;;;4.53;;
11685;SDS011;5899;51.282;6.094;2023-06-14T02:31:04;5.25;;;4.32;;
11685;SDS011;5899;51.282;6.094;2023-06-14T02:33:34;4.97;;;4.47;;
11685;SDS011;5899;51.282;6.094;2023-06-14T02:39:09;5.53;;;4.13;;
11685;SDS011;5899;51.282;6.094;2023-06-14T02:41:56;4.90;;;3.70;;
11685;SDS011;5899;51.282;6.094;2023-06-14T02:53:15;4.57;;;4.07;;
11685;SDS011;5899;51.282;6.094;2023-06-14T02:58:35;5.67;;;4.03;;
11685;SDS011;5899;51.282;6.094;2023-06-14T03:04:25;5.15;;;4.18;;
11685;SDS011;5899;51.282;6.094;2023-06-14T03:07:35;4.93;;;3.92;;
11685;SDS011;5899;51.282;6.094;2023-06-14T03:12:46;6.22;;;3.90;;
11685;SDS011;5899;51.282;6.094;2023-06-14T03:15:19;4.22;;;3.75;;
11685;SDS011;5899;51.282;6.094;2023-06-14T03:18:13;4.20;;;3.80;;
11685;SDS011;5899;51.282;6.094;2023-06-14T03:20:47;5.60;;;3.97;;
11685;SDS011;5899;51.282;6.094;2023-06-14T03:26:31;4.40;;;4.00;;
11685;SDS011;5899;51.282;6.094;2023-06-14T03:32:13;6.35;;;4.40;;
11685;SDS011;5899;51.282;6.094;2023-06-14T03:35:15;4.17;;;3.77;;
11685;SDS011;5899;51.282;6.094;2023-06-14T03:37:57;5.15;;;3.83;;
11685;SDS011;5899;51.282;6.094;2023-06-14T03:43:40;4.47;;;4.07;;
11685;SDS011;5899;51.282;6.094;2023-06-14T03:46:19;5.78;;;4.18;;
11685;SDS011;5899;51.282;6.094;2023-06-14T03:54:31;4.20;;;3.80;;
11685;SDS011;5899;51.282;6.094;2023-06-14T03:57:15;5.20;;;4.10;;
11685;SDS011;5899;51.282;6.094;2023-06-14T03:59:52;4.28;;;3.85;;
11685;SDS011;5899;51.282;6.094;2023-06-14T04:02:25;4.13;;;3.70;;
11685;SDS011;5899;51.282;6.094;2023-06-14T04:05:34;4.70;;;3.80;;
11685;SDS011;5899;51.282;6.094;2023-06-14T04:08:12;5.63;;;4.25;;
11685;SDS011;5899;51.282;6.094;2023-06-14T04:11:09;5.28;;;4.18;;
11685;SDS011;5899;51.282;6.094;2023-06-14T04:13:53;5.63;;;4.23;;
11685;SDS011;5899;51.282;6.094;2023-06-14T04:17:37;5.07;;;4.03;;
11685;SDS011;5899;51.282;6.094;2023-06-14T04:19:42;4.85;;;3.85;;
11685;SDS011;5899;51.282;6.094;2023-06-14T04:22:22;4.70;;;3.67;;
11685;SDS011;5899;51.282;6.094;2023-06-14T04:27:59;4.40;;;4.00;;
11685;SDS011;5899;51.282;6.094;2023-06-14T04:30:33;5.25;;;4.07;;
11685;SDS011;5899;51.282;6.094;2023-06-14T04:33:03;8.45;;;4.88;;
11685;SDS011;5899;51.282;6.094;2023-06-14T04:35:36;4.50;;;3.78;;
11685;SDS011;5899;51.282;6.094;2023-06-14T04:38:05;5.53;;;4.07;;
11685;SDS011;5899;51.282;6.094;2023-06-14T05:13:55;4.88;;;3.85;;
11685;SDS011;5899;51.282;6.094;2023-06-14T05:16:25;4.78;;;3.47;;
11685;SDS011;5899;51.282;6.094;2023-06-14T05:19:08;3.97;;;3.40;;
11685;SDS011;5899;51.282;6.094;2023-06-14T05:23:12;4.60;;;3.80;;
11685;SDS011;5899;51.282;6.094;2023-06-14T05:24:27;5.72;;;3.85;;
11685;SDS011;5899;51.282;6.094;2023-06-14T05:26:57;5.70;;;3.70;;
11685;SDS011;5899;51.282;6.094;2023-06-14T05:29:32;10.10;;;5.65;;
11685;SDS011;5899;51.282;6.094;2023-06-14T05:32:05;4.15;;;3.63;;
11685;SDS011;5899;51.282;6.094;2023-06-14T05:34:36;5.23;;;3.47;;
11685;SDS011;5899;51.282;6.094;2023-06-14T05:37:11;3.75;;;3.45;;
11685;SDS011;5899;51.282;6.094;2023-06-14T05:39:42;5.20;;;3.60;;
11685;SDS011;5899;51.282;6.094;2023-06-14T05:42:11;6.43;;;3.67;;
11685;SDS011;5899;51.282;6.094;2023-06-14T05:44:49;5.60;;;3.35;;
11685;SDS011;5899;51.282;6.094;2023-06-14T05:47:21;4.10;;;3.70;;
11685;SDS011;5899;51.282;6.094;2023-06-14T05:49:56;4.75;;;3.60;;
11685;SDS011;5899;51.282;6.094;2023-06-14T05:52:24;6.50;;;3.40;;
11685;SDS011;5899;51.282;6.094;2023-06-14T05:55:09;6.60;;;3.53;;
11685;SDS011;5899;51.282;6.094;2023-06-14T05:57:51;5.53;;;3.40;;
11685;SDS011;5899;51.282;6.094;2023-06-14T06:00:27;4.88;;;3.30;;
11685;SDS011;5899;51.282;6.094;2023-06-14T06:03:05;6.80;;;3.70;;
11685;SDS011;5899;51.282;6.094;2023-06-14T06:05:38;3.80;;;3.33;;
11685;SDS011;5899;51.282;6.094;2023-06-14T06:08:30;4.23;;;3.60;;
11685;SDS011;5899;51.282;6.094;2023-06-14T06:11:02;5.53;;;4.38;;
11685;SDS011;5899;51.282;6.094;2023-06-14T06:13:29;5.90;;;3.50;;
11685;SDS011;5899;51.282;6.094;2023-06-14T06:18:49;5.20;;;3.80;;
11685;SDS011;5899;51.282;6.094;2023-06-14T06:21:19;4.65;;;3.25;;
11685;SDS011;5899;51.282;6.094;2023-06-14T06:24:35;6.25;;;4.05;;
11685;SDS011;5899;51.282;6.094;2023-06-14T06:26:50;3.83;;;3.10;;
11685;SDS011;5899;51.282;6.094;2023-06-14T06:29:19;4.22;;;3.22;;
11685;SDS011;5899;51.282;6.094;2023-06-14T06:32:02;3.50;;;3.08;;
11685;SDS011;5899;51.282;6.094;2023-06-14T06:37:15;3.67;;;3.17;;
11685;SDS011;5899;51.282;6.094;2023-06-14T06:39:48;4.13;;;2.97;;
11685;SDS011;5899;51.282;6.094;2023-06-14T06:42:14;3.75;;;3.40;;
11685;SDS011;5899;51.282;6.094;2023-06-14T06:44:41;3.63;;;3.17;;
11685;SDS011;5899;51.282;6.094;2023-06-14T06:47:12;4.83;;;3.30;;
11685;SDS011;5899;51.282;6.094;2023-06-14T06:52:31;4.80;;;3.10;;
11685;SDS011;5899;51.282;6.094;2023-06-14T06:55:15;4.43;;;3.23;;
11685;SDS011;5899;51.282;6.094;2023-06-14T06:57:44;4.03;;;3.13;;
11685;SDS011;5899;51.282;6.094;2023-06-14T07:01:36;3.75;;;2.88;;
11685;SDS011;5899;51.282;6.094;2023-06-14T07:03:33;3.42;;;2.70;;
11685;SDS011;5899;51.282;6.094;2023-06-14T07:06:20;3.90;;;2.70;;
11685;SDS011;5899;51.282;6.094;2023-06-14T07:11:49;4.13;;;3.00;;
11685;SDS011;5899;51.282;6.094;2023-06-14T07:14:31;4.60;;;2.75;;
11685;SDS011;5899;51.282;6.094;2023-06-14T07:17:20;4.05;;;2.95;;
11685;SDS011;5899;51.282;6.094;2023-06-14T07:22:04;5.90;;;3.00;;
11685;SDS011;5899;51.282;6.094;2023-06-14T07:22:53;3.20;;;2.30;;
11685;SDS011;5899;51.282;6.094;2023-06-14T07:25:24;2.75;;;2.53;;
11685;SDS011;5899;51.282;6.094;2023-06-14T07:28:02;3.30;;;2.40;;
11685;SDS011;5899;51.282;6.094;2023-06-14T07:30:33;2.75;;;2.50;;
11685;SDS011;5899;51.282;6.094;2023-06-14T07:33:33;3.25;;;2.50;;
11685;SDS011;5899;51.282;6.094;2023-06-14T07:38:51;2.60;;;2.30;;
11685;SDS011;5899;51.282;6.094;2023-06-14T07:41:36;2.40;;;2.20;;
11685;SDS011;5899;51.282;6.094;2023-06-14T07:56:30;2.55;;;1.95;;
11685;SDS011;5899;51.282;6.094;2023-06-14T09:01:51;1.60;;;1.40;;
11685;SDS011;5899;51.282;6.094;2023-06-14T09:05:43;2.13;;;1.45;;
11685;SDS011;5899;51.282;6.094;2023-06-14T09:10:02;2.95;;;1.42;;
11685;SDS011;5899;51.282;6.094;2023-06-14T09:13:14;1.87;;;1.40;;
11685;SDS011;5899;51.282;6.094;2023-06-14T09:48:03;2.55;;;1.75;;
11685;SDS011;5899;51.282;6.094;2023-06-14T09:50:58;3.10;;;1.70;;
11685;SDS011;5899;51.282;6.094;2023-06-14T09:56:28;2.23;;;1.80;;
11685;SDS011;5899;51.282;6.094;2023-06-14T09:58:59;2.45;;;1.92;;
11685;SDS011;5899;51.282;6.094;2023-06-14T10:02:40;1.95;;;1.70;;
11685;SDS011;5899;51.282;6.094;2023-06-14T10:08:00;3.00;;;1.67;;
11685;SDS011;5899;51.282;6.094;2023-06-14T10:10:56;3.15;;;1.35;;
11685;SDS011;5899;51.282;6.094;2023-06-14T10:13:26;2.70;;;1.30;;
11685;SDS011;5899;51.282;6.094;2023-06-14T10:15:58;2.60;;;1.70;;
11685;SDS011;5899;51.282;6.094;2023-06-14T10:18:35;1.70;;;1.60;;
11685;SDS011;5899;51.282;6.094;2023-06-14T10:21:13;2.20;;;1.70;;
11685;SDS011;5899;51.282;6.094;2023-06-14T10:23:44;1.73;;;1.60;;
11685;SDS011;5899;51.282;6.094;2023-06-14T10:26:21;2.50;;;1.60;;
11685;SDS011;5899;51.282;6.094;2023-06-14T10:31:58;2.53;;;1.53;;
11685;SDS011;5899;51.282;6.094;2023-06-14T10:34:29;3.33;;;1.70;;
11685;SDS011;5899;51.282;6.094;2023-06-14T10:37:00;1.50;;;1.40;;
11685;SDS011;5899;51.282;6.094;2023-06-14T10:39:40;1.70;;;1.60;;
11685;SDS011;5899;51.282;6.094;2023-06-14T10:42:12;1.75;;;1.55;;
11685;SDS011;5899;51.282;6.094;2023-06-14T10:44:45;2.40;;;2.08;;
11685;SDS011;5899;51.282;6.094;2023-06-14T10:47:23;2.28;;;1.63;;
11685;SDS011;5899;51.282;6.094;2023-06-14T10:49:54;3.20;;;1.60;;
11685;SDS011;5899;51.282;6.094;2023-06-14T10:52:27;1.42;;;1.23;;
11685;SDS011;5899;51.282;6.094;2023-06-14T10:57:48;1.80;;;1.45;;
11685;SDS011;5899;51.282;6.094;2023-06-14T11:00:23;3.42;;;1.80;;
11685;SDS011;5899;51.282;6.094;2023-06-14T11:03:08;1.70;;;1.30;;
11685;SDS011;5899;51.282;6.094;2023-06-14T11:05:49;3.63;;;1.70;;
11685;SDS011;5899;51.282;6.094;2023-06-14T11:08:23;1.90;;;1.65;;
11685;SDS011;5899;51.282;6.094;2023-06-14T11:10:56;1.80;;;1.67;;
11685;SDS011;5899;51.282;6.094;2023-06-14T11:13:31;2.80;;;1.60;;
11685;SDS011;5899;51.282;6.094;2023-06-14T11:16:12;2.05;;;1.85;;
11685;SDS011;5899;51.282;6.094;2023-06-14T11:18:48;1.60;;;1.50;;
11685;SDS011;5899;51.282;6.094;2023-06-14T11:21:26;1.60;;;1.50;;
11685;SDS011;5899;51.282;6.094;2023-06-14T11:23:58;2.65;;;1.75;;
11685;SDS011;5899;51.282;6.094;2023-06-14T11:26:29;1.92;;;1.70;;
11685;SDS011;5899;51.282;6.094;2023-06-14T11:31:45;2.20;;;1.90;;
11685;SDS011;5899;51.282;6.094;2023-06-14T11:34:17;4.82;;;1.83;;
11685;SDS011;5899;51.282;6.094;2023-06-14T11:36:47;1.95;;;1.80;;
11685;SDS011;5899;51.282;6.094;2023-06-14T11:39:25;2.67;;;1.75;;
11685;SDS011;5899;51.282;6.094;2023-06-14T11:41:55;2.38;;;1.60;;
11685;SDS011;5899;51.282;6.094;2023-06-14T11:44:57;1.90;;;1.70;;
11685;SDS011;5899;51.282;6.094;2023-06-14T11:47:25;2.38;;;1.52;;
11685;SDS011;5899;51.282;6.094;2023-06-14T11:50:04;1.77;;;1.63;;
11685;SDS011;5899;51.282;6.094;2023-06-14T11:52:31;1.90;;;1.70;;
11685;SDS011;5899;51.282;6.094;2023-06-14T11:55:10;1.90;;;1.70;;
11685;SDS011;5899;51.282;6.094;2023-06-14T11:57:41;1.88;;;1.45;;
11685;SDS011;5899;51.282;6.094;2023-06-14T12:00:46;3.20;;;1.50;;
11685;SDS011;5899;51.282;6.094;2023-06-14T12:03:02;3.47;;;2.00;;
11685;SDS011;5899;51.282;6.094;2023-06-14T12:05:28;2.05;;;1.63;;
11685;SDS011;5899;51.282;6.094;2023-06-14T12:08:04;1.40;;;1.30;;
11685;SDS011;5899;51.282;6.094;2023-06-14T12:10:42;1.00;;;1.00;;
11685;SDS011;5899;51.282;6.094;2023-06-14T12:13:11;1.60;;;1.50;;
11685;SDS011;5899;51.282;6.094;2023-06-14T12:21:16;4.67;;;1.50;;
11685;SDS011;5899;51.282;6.094;2023-06-14T12:24:05;1.33;;;1.23;;
11685;SDS011;5899;51.282;6.094;2023-06-14T12:27:01;1.92;;;1.40;;
11685;SDS011;5899;51.282;6.094;2023-06-14T12:29:33;1.48;;;1.38;;
11685;SDS011;5899;51.282;6.094;2023-06-14T12:32:05;1.30;;;1.20;;
11685;SDS011;5899;51.282;6.094;2023-06-14T12:35:04;1.80;;;1.27;;
11685;SDS011;5899;51.282;6.094;2023-06-14T12:37:40;1.30;;;1.20;;
11685;SDS011;5899;51.282;6.094;2023-06-14T12:40:07;1.30;;;1.20;;
11685;SDS011;5899;51.282;6.094;2023-06-14T12:42:44;1.17;;;1.10;;
11685;SDS011;5899;51.282;6.094;2023-06-14T12:45:18;1.30;;;1.20;;
11685;SDS011;5899;51.282;6.094;2023-06-14T12:48:05;1.20;;;1.10;;
11685;SDS011;5899;51.282;6.094;2023-06-14T12:50:43;1.90;;;1.13;;
11685;SDS011;5899;51.282;6.094;2023-06-14T12:53:19;2.47;;;1.10;;
11685;SDS011;5899;51.282;6.094;2023-06-14T12:55:48;2.10;;;1.40;;
11685;SDS011;5899;51.282;6.094;2023-06-14T12:58:15;1.02;;;1.02;;
11685;SDS011;5899;51.282;6.094;2023-06-14T13:00:44;2.00;;;1.30;;
11685;SDS011;5899;51.282;6.094;2023-06-14T13:03:33;1.67;;;1.50;;
11685;SDS011;5899;51.282;6.094;2023-06-14T13:06:33;1.37;;;1.10;;
11685;SDS011;5899;51.282;6.094;2023-06-14T13:12:27;2.67;;;1.67;;
11685;SDS011;5899;51.282;6.094;2023-06-14T13:15:08;1.57;;;1.30;;
11685;SDS011;5899;51.282;6.094;2023-06-14T13:17:38;2.90;;;1.60;;
11685;SDS011;5899;51.282;6.094;2023-06-14T13:20:06;1.50;;;1.38;;
11685;SDS011;5899;51.282;6.094;2023-06-14T13:22:40;2.95;;;1.48;;
11685;SDS011;5899;51.282;6.094;2023-06-14T13:25:11;1.70;;;1.30;;
11685;SDS011;5899;51.282;6.094;2023-06-14T13:33:48;2.33;;;1.40;;
11685;SDS011;5899;51.282;6.094;2023-06-14T13:36:17;1.58;;;1.48;;
11685;SDS011;5899;51.282;6.094;2023-06-14T13:38:50;1.60;;;1.50;;
11685;SDS011;5899;51.282;6.094;2023-06-14T13:41:19;1.48;;;1.27;;
11685;SDS011;5899;51.282;6.094;2023-06-14T13:43:55;1.60;;;1.50;;
11685;SDS011;5899;51.282;6.094;2023-06-14T13:46:21;1.52;;;1.27;;
11685;SDS011;5899;51.282;6.094;2023-06-14T13:48:50;1.33;;;1.23;;
11685;SDS011;5899;51.282;6.094;2023-06-14T13:51:27;1.50;;;1.40;;
11685;SDS011;5899;51.282;6.094;2023-06-14T13:53:55;1.70;;;1.45;;
11685;SDS011;5899;51.282;6.094;2023-06-14T13:56:22;1.50;;;1.40;;
11685;SDS011;5899;51.282;6.094;2023-06-14T13:58:49;2.20;;;1.40;;
11685;SDS011;5899;51.282;6.094;2023-06-14T14:01:18;1.85;;;1.40;;
11685;SDS011;5899;51.282;6.094;2023-06-14T14:03:45;1.52;;;1.42;;
11685;SDS011;5899;51.282;6.094;2023-06-14T14:06:17;1.85;;;1.48;;
11685;SDS011;5899;51.282;6.094;2023-06-14T14:08:43;2.17;;;1.50;;
11685;SDS011;5899;51.282;6.094;2023-06-14T14:11:13;2.83;;;1.40;;
11685;SDS011;5899;51.282;6.094;2023-06-14T14:13:41;1.42;;;1.33;;
11685;SDS011;5899;51.282;6.094;2023-06-14T14:16:08;1.87;;;1.40;;
11685;SDS011;5899;51.282;6.094;2023-06-14T14:18:39;1.50;;;1.40;;
11685;SDS011;5899;51.282;6.094;2023-06-14T14:21:06;2.57;;;1.63;;
11685;SDS011;5899;51.282;6.094;2023-06-14T14:23:38;1.33;;;1.13;;
11685;SDS011;5899;51.282;6.094;2023-06-14T14:26:07;1.58;;;1.48;;
11685;SDS011;5899;51.282;6.094;2023-06-14T14:28:38;2.47;;;1.42;;
11685;SDS011;5899;51.282;6.094;2023-06-14T14:31:05;3.60;;;1.45;;
11685;SDS011;5899;51.282;6.094;2023-06-14T14:33:33;1.95;;;1.63;;
11685;SDS011;5899;51.282;6.094;2023-06-14T14:36:01;1.20;;;1.10;;
11685;SDS011;5899;51.282;6.094;2023-06-14T14:38:31;2.00;;;1.48;;
11685;SDS011;5899;51.282;6.094;2023-06-14T14:41:06;3.15;;;1.60;;
11685;SDS011;5899;51.282;6.094;2023-06-14T14:43:35;2.00;;;1.50;;
11685;SDS011;5899;51.282;6.094;2023-06-14T14:46:02;2.60;;;1.42;;
11685;SDS011;5899;51.282;6.094;2023-06-14T14:48:37;1.90;;;1.60;;
11685;SDS011;5899;51.282;6.094;2023-06-14T14:51:06;3.13;;;1.42;;
11685;SDS011;5899;51.282;6.094;2023-06-14T14:53:32;1.52;;;1.42;;
11685;SDS011;5899;51.282;6.094;2023-06-14T14:55:59;4.07;;;1.90;;
11685;SDS011;5899;51.282;6.094;2023-06-14T14:58:44;3.30;;;1.75;;
11685;SDS011;5899;51.282;6.094;2023-06-14T15:01:20;1.75;;;1.65;;
11685;SDS011;5899;51.282;6.094;2023-06-14T15:03:48;3.25;;;1.80;;
11685;SDS011;5899;51.282;6.094;2023-06-14T15:06:22;2.67;;;1.40;;
11685;SDS011;5899;51.282;6.094;2023-06-14T15:08:48;1.90;;;1.73;;
11685;SDS011;5899;51.282;6.094;2023-06-14T15:11:34;2.22;;;1.90;;
11685;SDS011;5899;51.282;6.094;2023-06-14T15:14:11;1.85;;;1.55;;
11685;SDS011;5899;51.282;6.094;2023-06-14T15:16:39;1.70;;;1.50;;
11685;SDS011;5899;51.282;6.094;2023-06-14T15:19:08;3.08;;;1.85;;
11685;SDS011;5899;51.282;6.094;2023-06-14T15:21:36;2.03;;;1.40;;
11685;SDS011;5899;51.282;6.094;2023-06-14T15:24:02;1.90;;;1.65;;
11685;SDS011;5899;51.282;6.094;2023-06-14T15:26:32;1.63;;;1.52;;
11685;SDS011;5899;51.282;6.094;2023-06-14T15:29:00;2.50;;;1.80;;
11685;SDS011;5899;51.282;6.094;2023-06-14T15:31:30;2.90;;;1.80;;
11685;SDS011;5899;51.282;6.094;2023-06-14T15:34:03;2.28;;;1.70;;
11685;SDS011;5899;51.282;6.094;2023-06-14T15:36:32;1.90;;;1.67;;
11685;SDS011;5899;51.282;6.094;2023-06-14T15:39:04;1.70;;;1.60;;
11685;SDS011;5899;51.282;6.094;2023-06-14T15:41:31;1.63;;;1.53;;
11685;SDS011;5899;51.282;6.094;2023-06-14T15:43:57;2.40;;;1.70;;
11685;SDS011;5899;51.282;6.094;2023-06-14T15:46:24;1.70;;;1.60;;
11685;SDS011;5899;51.282;6.094;2023-06-14T15:48:54;2.70;;;1.70;;
11685;SDS011;5899;51.282;6.094;2023-06-14T15:51:28;1.92;;;1.70;;
11685;SDS011;5899;51.282;6.094;2023-06-14T15:54:05;1.70;;;1.60;;
11685;SDS011;5899;51.282;6.094;2023-06-14T15:56:38;1.65;;;1.55;;
11685;SDS011;5899;51.282;6.094;2023-06-14T15:59:12;1.83;;;1.67;;
11685;SDS011;5899;51.282;6.094;2023-06-14T16:01:39;2.38;;;1.70;;
11685;SDS011;5899;51.282;6.094;2023-06-14T16:04:09;1.70;;;1.60;;
11685;SDS011;5899;51.282;6.094;2023-06-14T16:07:09;1.80;;;1.60;;
11685;SDS011;5899;51.282;6.094;2023-06-14T16:09:26;2.80;;;1.80;;
11685;SDS011;5899;51.282;6.094;2023-06-14T16:12:13;4.63;;;1.80;;
11685;SDS011;5899;51.282;6.094;2023-06-14T16:14:46;2.17;;;1.77;;
11685;SDS011;5899;51.282;6.094;2023-06-14T16:17:13;2.03;;;1.83;;
11685;SDS011;5899;51.282;6.094;2023-06-14T16:25:04;1.70;;;1.60;;
11685;SDS011;5899;51.282;6.094;2023-06-14T16:27:35;2.30;;;1.80;;
11685;SDS011;5899;51.282;6.094;2023-06-14T16:30:03;1.90;;;1.67;;
11685;SDS011;5899;51.282;6.094;2023-06-14T16:32:39;2.23;;;1.73;;
11685;SDS011;5899;51.282;6.094;2023-06-14T16:35:09;3.00;;;2.10;;
11685;SDS011;5899;51.282;6.094;2023-06-14T16:37:44;4.68;;;1.75;;
11685;SDS011;5899;51.282;6.094;2023-06-14T16:40:26;2.17;;;1.50;;
11685;SDS011;5899;51.282;6.094;2023-06-14T16:42:53;2.22;;;1.67;;
11685;SDS011;5899;51.282;6.094;2023-06-14T16:45:20;2.10;;;1.90;;
11685;SDS011;5899;51.282;6.094;2023-06-14T16:47:48;2.28;;;2.00;;
11685;SDS011;5899;51.282;6.094;2023-06-14T16:50:18;1.80;;;1.70;;
11685;SDS011;5899;51.282;6.094;2023-06-14T16:52:48;1.67;;;1.55;;
11685;SDS011;5899;51.282;6.094;2023-06-14T16:55:20;2.05;;;1.80;;
11685;SDS011;5899;51.282;6.094;2023-06-14T16:57:53;4.07;;;1.95;;
11685;SDS011;5899;51.282;6.094;2023-06-14T17:00:39;2.13;;;1.85;;
11685;SDS011;5899;51.282;6.094;2023-06-14T17:03:09;3.35;;;1.67;;
11685;SDS011;5899;51.282;6.094;2023-06-14T17:05:38;3.20;;;1.80;;
11685;SDS011;5899;51.282;6.094;2023-06-14T17:08:16;1.77;;;1.65;;
11685;SDS011;5899;51.282;6.094;2023-06-14T17:10:51;2.00;;;1.70;;
11685;SDS011;5899;51.282;6.094;2023-06-14T17:21:36;1.95;;;1.70;;
11685;SDS011;5899;51.282;6.094;2023-06-14T17:24:51;2.10;;;1.90;;
11685;SDS011;5899;51.282;6.094;2023-06-14T17:27:31;2.17;;;1.98;;
11685;SDS011;5899;51.282;6.094;2023-06-14T17:33:21;2.08;;;1.88;;
11685;SDS011;5899;51.282;6.094;2023-06-14T17:35:56;3.15;;;1.73;;
11685;SDS011;5899;51.282;6.094;2023-06-14T17:41:32;3.17;;;1.80;;
11685;SDS011;5899;51.282;6.094;2023-06-14T17:44:04;2.05;;;1.80;;
11685;SDS011;5899;51.282;6.094;2023-06-14T17:46:41;2.00;;;1.80;;
11685;SDS011;5899;51.282;6.094;2023-06-14T17:49:26;2.28;;;2.00;;
11685;SDS011;5899;51.282;6.094;2023-06-14T17:52:37;2.10;;;1.90;;
11685;SDS011;5899;51.282;6.094;2023-06-14T17:55:11;2.20;;;2.00;;
11685;SDS011;5899;51.282;6.094;2023-06-14T18:03:38;4.88;;;2.10;;
11685;SDS011;5899;51.282;6.094;2023-06-14T18:06:18;2.50;;;2.00;;
11685;SDS011;5899;51.282;6.094;2023-06-14T18:08:53;2.13;;;1.92;;
11685;SDS011;5899;51.282;6.094;2023-06-14T18:11:36;2.05;;;1.85;;
11685;SDS011;5899;51.282;6.094;2023-06-14T18:14:22;2.13;;;1.92;;
11685;SDS011;5899;51.282;6.094;2023-06-14T18:17:25;2.30;;;2.10;;
11685;SDS011;5899;51.282;6.094;2023-06-14T18:19:41;2.20;;;2.00;;
11685;SDS011;5899;51.282;6.094;2023-06-14T18:22:15;3.63;;;2.10;;
11685;SDS011;5899;51.282;6.094;2023-06-14T18:24:54;2.33;;;2.03;;
11685;SDS011;5899;51.282;6.094;2023-06-14T18:28:03;3.20;;;2.30;;
11685;SDS011;5899;51.282;6.094;2023-06-14T18:30:18;2.10;;;1.90;;
11685;SDS011;5899;51.282;6.094;2023-06-14T18:32:57;3.03;;;2.30;;
11685;SDS011;5899;51.282;6.094;2023-06-14T18:38:52;2.92;;;1.90;;
11685;SDS011;5899;51.282;6.094;2023-06-14T18:41:27;2.28;;;1.80;;
11685;SDS011;5899;51.282;6.094;2023-06-14T18:44:27;2.30;;;2.10;;
11685;SDS011;5899;51.282;6.094;2023-06-14T18:46:57;2.20;;;2.00;;
11685;SDS011;5899;51.282;6.094;2023-06-14T18:49:38;2.53;;;2.10;;
11685;SDS011;5899;51.282;6.094;2023-06-14T18:52:09;2.00;;;1.80;;
11685;SDS011;5899;51.282;6.094;2023-06-14T18:54:42;3.10;;;2.05;;
11685;SDS011;5899;51.282;6.094;2023-06-14T18:57:29;2.03;;;1.83;;
11685;SDS011;5899;51.282;6.094;2023-06-14T19:00:08;1.80;;;1.70;;
11685;SDS011;5899;51.282;6.094;2023-06-14T19:02:43;2.90;;;2.70;;
11685;SDS011;5899;51.282;6.094;2023-06-14T19:05:19;2.10;;;1.90;;
11685;SDS011;5899;51.282;6.094;2023-06-14T19:07:50;1.80;;;1.70;;
11685;SDS011;5899;51.282;6.094;2023-06-14T19:16:01;2.13;;;1.92;;
11685;SDS011;5899;51.282;6.094;2023-06-14T19:18:33;2.88;;;2.10;;
11685;SDS011;5899;51.282;6.094;2023-06-14T19:21:00;2.33;;;2.10;;
11685;SDS011;5899;51.282;6.094;2023-06-14T19:23:26;2.58;;;1.98;;
11685;SDS011;5899;51.282;6.094;2023-06-14T19:25:53;2.37;;;1.93;;
11685;SDS011;5899;51.282;6.094;2023-06-14T19:28:21;2.22;;;2.03;;
11685;SDS011;5899;51.282;6.094;2023-06-14T19:30:52;2.90;;;2.60;;
11685;SDS011;5899;51.282;6.094;2023-06-14T19:33:20;2.25;;;2.05;;
11685;SDS011;5899;51.282;6.094;2023-06-14T19:35:47;2.53;;;1.90;;
11685;SDS011;5899;51.282;6.094;2023-06-14T19:38:13;2.42;;;2.00;;
11685;SDS011;5899;51.282;6.094;2023-06-14T19:40:41;2.30;;;2.10;;
11685;SDS011;5899;51.282;6.094;2023-06-14T19:43:08;2.50;;;2.20;;
11685;SDS011;5899;51.282;6.094;2023-06-14T19:45:34;2.20;;;2.00;;
11685;SDS011;5899;51.282;6.094;2023-06-14T19:48:06;5.30;;;2.08;;
11685;SDS011;5899;51.282;6.094;2023-06-14T19:50:33;2.60;;;2.17;;
11685;SDS011;5899;51.282;6.094;2023-06-14T19:53:03;2.42;;;1.80;;
11685;SDS011;5899;51.282;6.094;2023-06-14T19:55:29;3.27;;;2.00;;
11685;SDS011;5899;51.282;6.094;2023-06-14T19:57:56;4.47;;;2.10;;
11685;SDS011;5899;51.282;6.094;2023-06-14T20:00:25;3.70;;;2.13;;
11685;SDS011;5899;51.282;6.094;2023-06-14T20:02:52;2.10;;;1.90;;
11685;SDS011;5899;51.282;6.094;2023-06-14T20:05:18;2.28;;;2.08;;
11685;SDS011;5899;51.282;6.094;2023-06-14T20:07:55;3.00;;;2.10;;
11685;SDS011;5899;51.282;6.094;2023-06-14T20:10:53;3.17;;;2.30;;
11685;SDS011;5899;51.282;6.094;2023-06-14T20:13:12;2.20;;;2.00;;
11685;SDS011;5899;51.282;6.094;2023-06-14T20:15:48;2.50;;;2.08;;
11685;SDS011;5899;51.282;6.094;2023-06-14T20:18:15;3.03;;;2.17;;
11685;SDS011;5899;51.282;6.094;2023-06-14T20:23:53;2.47;;;1.98;;
11685;SDS011;5899;51.282;6.094;2023-06-14T20:26:36;2.40;;;2.20;;
11685;SDS011;5899;51.282;6.094;2023-06-14T20:29:09;2.40;;;2.20;;
11685;SDS011;5899;51.282;6.094;2023-06-14T20:31:37;2.75;;;2.20;;
11685;SDS011;5899;51.282;6.094;2023-06-14T20:34:11;2.40;;;2.20;;
11685;SDS011;5899;51.282;6.094;2023-06-14T20:36:59;2.88;;;2.33;;
11685;SDS011;5899;51.282;6.094;2023-06-14T20:39:50;2.30;;;2.10;;
11685;SDS011;5899;51.282;6.094;2023-06-14T20:42:46;2.25;;;2.08;;
11685;SDS011;5899;51.282;6.094;2023-06-14T20:45:24;2.50;;;2.30;;
11685;SDS011;5899;51.282;6.094;2023-06-14T20:48:00;3.30;;;2.28;;
11685;SDS011;5899;51.282;6.094;2023-06-14T20:51:25;2.67;;;2.17;;
11685;SDS011;5899;51.282;6.094;2023-06-14T21:14:37;2.47;;;2.27;;
11685;SDS011;5899;51.282;6.094;2023-06-14T21:31:31;3.88;;;2.42;;
11685;SDS011;5899;51.282;6.094;2023-06-14T21:34:23;2.60;;;2.20;;
11685;SDS011;5899;51.282;6.094;2023-06-14T21:37:08;2.50;;;2.30;;
11685;SDS011;5899;51.282;6.094;2023-06-14T21:46:01;2.25;;;2.05;;
11685;SDS011;5899;51.282;6.094;2023-06-14T22:03:35;2.40;;;2.10;;
11685;SDS011;5899;51.282;6.094;2023-06-14T22:09:19;2.65;;;2.45;;
11685;SDS011;5899;51.282;6.094;2023-06-14T22:12:17;2.30;;;2.10;;